Nearby METAR Reports

 

KMGY - Dayton, Ohio, USA
Distance from station: N 3mi, 5km
Updated: Tue, 17-Sep-2019 10:53pm EDT
Clear
Clear
 Wind from ENE
Wind: ENE 7 mph , 11 km/h
Temperature: 70°F , 21°C
Dew Point: 57°F , 14°C
Humidity: 64%
Barometer: 30.11 inHg , 1019.6 hPa
Clouds: Clear
Visibility: 10 miles , 16 km
2019/09/18 02:53 KMGY 180253Z AUTO 06006KT 10SM CLR 21/14 A3011 RMK AO2 SLP189 T02060139 51013
KMWO - Middletown/Hook, Ohio, USA
Distance from station: W 9mi, 14km
Updated: Tue, 17-Sep-2019 11:35pm EDT
Clear
Clear
 Wind from N
Wind: N 7 mph , 11 km/h
Temperature: 64°F , 18°C
Dew Point: 59°F , 15°C
Humidity: 83%
Barometer: 30.13 inHg , 1020.3 hPa
Clouds: Clear
Visibility: 10 miles , 16 km
2019/09/18 03:35 KMWO 180335Z AUTO 36006KT 10SM CLR 18/15 A3013 RMK AO2 T01770151
 
KHAO - Hamilton, Ohio, USA
Distance from station: SW 20mi, 32km
Updated: Tue, 17-Sep-2019 10:53pm EDT
Clear
Clear
 Wind from calm
Wind: Calm
Temperature: 63°F , 17°C
Dew Point: 61°F , 16°C
Humidity: 94%
Barometer: 30.11 inHg , 1019.6 hPa
Clouds: Clear
Visibility: 10 miles , 16 km
2019/09/18 02:53 KHAO 180253Z AUTO 00000KT 10SM CLR 17/16 A3011 RMK AO2 SLP191 T01720161 51013
KFFO - Wright Paterson, Ohio, USA
Distance from station: NNE 21mi, 34km
Updated: Tue, 17-Sep-2019 10:56pm EDT
Clear
Clear
 Wind from NE
Wind: NE 9 mph , 15 km/h
Temperature: 68°F , 20°C
Dew Point: 61°F , 16°C
Humidity: 78%
Barometer: 30.12 inHg , 1020 hPa
Clouds: Clear
Visibility: 10 miles , 16 km
2019/09/18 02:56 KFFO 180256Z AUTO 04008KT 10SM CLR 20/16 A3012 RMK AO2 SLP198 T02020162 52012
 
KDAY - Dayton, Ohio, USA
Distance from station: N 24mi, 39km
Updated: Tue, 17-Sep-2019 10:56pm EDT
Clear
Clear
 Wind from NE
Wind: NE 9 mph , 15 km/h
Temperature: 68°F , 20°C
Dew Point: 61°F , 16°C
Humidity: 78%
Barometer: 30.14 inHg , 1020.7 hPa
Clouds: Clear
Visibility: 10 miles , 16 km
2019/09/18 02:56 KDAY 180256Z 05008KT 10SM CLR 20/16 A3014 RMK AO2 SLP201 T02000161 51013
KILN - Wilmington, Ohio, USA
Distance from station: ESE 25mi, 39km
Updated: Tue, 17-Sep-2019 10:54pm EDT
Clear
Clear
 Wind from ENE
Wind: ENE 8 mph , 13 km/h
Temperature: 66°F , 19°C
Dew Point: 57°F , 14°C
Humidity: 73%
Barometer: 30.11 inHg , 1019.6 hPa
Clouds: Clear
Visibility: 10 miles , 16 km
2019/09/18 02:54 KILN 180254Z AUTO 06007KT 10SM CLR 19/14 A3011 RMK AO2 SLP191 T01890144 51011
 
KSGH - Springfield Muni, Ohio, USA
Distance from station: NE 29mi, 46km
Updated: Tue, 17-Sep-2019 10:56pm EDT
Clear
Clear
 Wind from ENE
Wind: ENE 10 mph , 17 km/h
Temperature: 64°F , 18°C
Dew Point: 63°F , 17°C
Humidity: 94%
Barometer: 30.14 inHg , 1020.7 hPa
Clouds: Clear
Visibility: 10 miles , 16 km
2019/09/18 02:56 KSGH 180256Z AUTO 06009KT 10SM CLR 18/17 A3014 RMK AO2 SLP201 T01830172 51013
KI69 - Batavia, Ohio, USA
Distance from station: S 32mi, 52km
Updated: Tue, 17-Sep-2019 11:38pm EDT
Clear
Clear
 Wind from calm
Wind: Calm
Temperature: 66°F , 19°C
Dew Point: 59°F , 15°C
Humidity: 78%
Barometer: 30.11 inHg , 1019.6 hPa
Clouds: Clear
Visibility: 10 miles , 16 km
2019/09/18 03:38 KI69 180338Z AUTO 00000KT 10SM CLR 19/15 A3011 RMK AO2 T01880152
 
KLUK - Cincinnat/Lunken, Ohio, USA
Distance from station: SSW 33mi, 53km
Updated: Tue, 17-Sep-2019 10:53pm EDT
Clear
Clear
 Wind from ENE
Wind: ENE 3 mph , 6 km/h
Temperature: 64°F , 18°C
Dew Point: 63°F , 17°C
Humidity: 94%
Barometer: 30.09 inHg , 1019 hPa
Clouds: Clear
Visibility: 10 miles , 16 km
2019/09/18 02:53 KLUK 180253Z 06003KT 10SM CLR 18/17 A3009 RMK AO2 SLP186 T01780167 51011
KCVG - Covington, Kentucky, USA
Distance from station: SSW 42mi, 67km
Updated: Tue, 17-Sep-2019 10:52pm EDT
Few Clouds
Few Clouds
 Wind from E
Wind: E 8 mph , 13 km/h
Temperature: 72°F , 22°C
Dew Point: 57°F , 14°C
Humidity: 61%
Barometer: 30.09 inHg , 1019 hPa
Clouds: Few Clouds
Visibility: 10 miles , 16 km
Cloud details: Few Clouds 25000 ft
2019/09/18 02:52 KCVG 180252Z 09007KT 10SM FEW250 22/14 A3009 RMK AO2 SLP181 T02220139 51009
 
KVES - Versailles, Ohio, USA
Distance from station: NNW 47mi, 76km
Updated: Tue, 17-Sep-2019 11:35pm EDT
Clear
Clear
 Wind from NE
Wind: NE 5 mph , 7 km/h
Temperature: 63°F , 17°C
Dew Point: 61°F , 16°C
Humidity: 94%
Barometer: 30.15 inHg , 1021 hPa
Clouds: Clear
Visibility: 7 miles , 11 km
2019/09/18 03:35 KVES 180335Z AUTO 05004KT 7SM CLR 17/16 A3015 RMK AO2